sensor_id;sensor_type;location;lat;lon;timestamp;temperature;humidity
27270;DHT22;14769;56.934;24.176;2022-08-19T00:00:59;22.70;99.90
27270;DHT22;14769;56.934;24.176;2022-08-19T00:02:01;22.70;99.90
27270;DHT22;14769;56.934;24.176;2022-08-19T00:03:04;22.70;99.90
27270;DHT22;14769;56.934;24.176;2022-08-19T00:04:09;22.70;99.90
27270;DHT22;14769;56.934;24.176;2022-08-19T00:05:13;22.70;99.90
27270;DHT22;14769;56.934;24.176;2022-08-19T00:06:16;22.70;99.90
27270;DHT22;14769;56.934;24.176;2022-08-19T00:07:21;22.70;99.90
27270;DHT22;14769;56.934;24.176;2022-08-19T00:08:23;22.70;99.90
27270;DHT22;14769;56.934;24.176;2022-08-19T00:09:27;22.70;99.90
27270;DHT22;14769;56.934;24.176;2022-08-19T00:10:29;22.70;99.90
27270;DHT22;14769;56.934;24.176;2022-08-19T00:11:31;22.70;99.90
27270;DHT22;14769;56.934;24.176;2022-08-19T00:12:33;22.70;99.90
27270;DHT22;14769;56.934;24.176;2022-08-19T00:13:44;22.70;99.90
27270;DHT22;14769;56.934;24.176;2022-08-19T00:14:47;22.60;99.90
27270;DHT22;14769;56.934;24.176;2022-08-19T00:15:49;22.60;99.90
27270;DHT22;14769;56.934;24.176;2022-08-19T00:16:53;22.60;99.90
27270;DHT22;14769;56.934;24.176;2022-08-19T00:17:56;22.60;99.90
27270;DHT22;14769;56.934;24.176;2022-08-19T00:18:58;22.60;99.90
27270;DHT22;14769;56.934;24.176;2022-08-19T00:20:00;22.60;99.90
27270;DHT22;14769;56.934;24.176;2022-08-19T00:21:02;22.60;99.90
27270;DHT22;14769;56.934;24.176;2022-08-19T00:22:04;22.60;99.90
27270;DHT22;14769;56.934;24.176;2022-08-19T00:23:07;22.60;99.90
27270;DHT22;14769;56.934;24.176;2022-08-19T00:24:10;22.60;99.90
27270;DHT22;14769;56.934;24.176;2022-08-19T00:25:13;22.60;99.90
27270;DHT22;14769;56.934;24.176;2022-08-19T00:26:16;22.50;99.90
27270;DHT22;14769;56.934;24.176;2022-08-19T00:27:18;22.60;99.90
27270;DHT22;14769;56.934;24.176;2022-08-19T00:28:27;22.60;99.90
27270;DHT22;14769;56.934;24.176;2022-08-19T00:29:29;22.50;99.90
27270;DHT22;14769;56.934;24.176;2022-08-19T00:30:31;22.50;99.90
27270;DHT22;14769;56.934;24.176;2022-08-19T00:31:33;22.50;99.90
27270;DHT22;14769;56.934;24.176;2022-08-19T00:32:35;22.50;99.90
27270;DHT22;14769;56.934;24.176;2022-08-19T00:33:38;22.50;99.90
27270;DHT22;14769;56.934;24.176;2022-08-19T00:34:40;22.50;99.90
27270;DHT22;14769;56.934;24.176;2022-08-19T00:35:42;22.50;99.90
27270;DHT22;14769;56.934;24.176;2022-08-19T00:36:44;22.50;99.90
27270;DHT22;14769;56.934;24.176;2022-08-19T00:37:47;22.50;99.90
27270;DHT22;14769;56.934;24.176;2022-08-19T00:38:49;22.50;99.90
27270;DHT22;14769;56.934;24.176;2022-08-19T00:39:53;22.50;99.90
27270;DHT22;14769;56.934;24.176;2022-08-19T00:40:57;22.50;99.90
27270;DHT22;14769;56.934;24.176;2022-08-19T00:42:00;22.50;99.90
27270;DHT22;14769;56.934;24.176;2022-08-19T00:43:10;22.50;99.90
27270;DHT22;14769;56.934;24.176;2022-08-19T00:44:24;22.50;99.90
27270;DHT22;14769;56.934;24.176;2022-08-19T00:45:28;22.50;99.90
27270;DHT22;14769;56.934;24.176;2022-08-19T00:46:39;22.40;99.90
27270;DHT22;14769;56.934;24.176;2022-08-19T00:47:41;22.40;99.90
27270;DHT22;14769;56.934;24.176;2022-08-19T00:48:43;22.30;99.90
27270;DHT22;14769;56.934;24.176;2022-08-19T00:49:57;22.30;99.90
27270;DHT22;14769;56.934;24.176;2022-08-19T00:50:59;22.30;99.90
27270;DHT22;14769;56.934;24.176;2022-08-19T00:52:12;22.30;99.90
27270;DHT22;14769;56.934;24.176;2022-08-19T00:53:19;22.30;99.90
27270;DHT22;14769;56.934;24.176;2022-08-19T00:54:21;22.30;99.90
27270;DHT22;14769;56.934;24.176;2022-08-19T00:55:32;22.30;99.90
27270;DHT22;14769;56.934;24.176;2022-08-19T00:56:35;22.30;99.90
27270;DHT22;14769;56.934;24.176;2022-08-19T00:57:40;22.30;99.90
27270;DHT22;14769;56.934;24.176;2022-08-19T00:58:43;22.30;99.90
27270;DHT22;14769;56.934;24.176;2022-08-19T00:59:47;22.20;99.90
27270;DHT22;14769;56.934;24.176;2022-08-19T01:01:03;22.20;99.90
27270;DHT22;14769;56.934;24.176;2022-08-19T01:02:06;22.20;99.90
27270;DHT22;14769;56.934;24.176;2022-08-19T01:03:11;22.20;99.90
27270;DHT22;14769;56.934;24.176;2022-08-19T01:04:14;22.20;99.90
27270;DHT22;14769;56.934;24.176;2022-08-19T01:05:19;22.20;99.90
27270;DHT22;14769;56.934;24.176;2022-08-19T01:06:22;22.20;99.90
27270;DHT22;14769;56.934;24.176;2022-08-19T01:07:25;22.20;99.90
27270;DHT22;14769;56.934;24.176;2022-08-19T01:08:27;22.20;99.90
27270;DHT22;14769;56.934;24.176;2022-08-19T01:09:29;22.20;99.90
27270;DHT22;14769;56.934;24.176;2022-08-19T01:10:45;22.20;99.90
27270;DHT22;14769;56.934;24.176;2022-08-19T01:11:48;22.20;99.90
27270;DHT22;14769;56.934;24.176;2022-08-19T01:12:52;22.20;99.90
27270;DHT22;14769;56.934;24.176;2022-08-19T01:13:54;22.20;99.90
27270;DHT22;14769;56.934;24.176;2022-08-19T01:14:57;22.20;99.90
27270;DHT22;14769;56.934;24.176;2022-08-19T01:16:07;22.20;99.90
27270;DHT22;14769;56.934;24.176;2022-08-19T01:17:12;22.20;99.90
27270;DHT22;14769;56.934;24.176;2022-08-19T01:18:15;22.20;99.90
27270;DHT22;14769;56.934;24.176;2022-08-19T01:20:27;22.20;99.90
27270;DHT22;14769;56.934;24.176;2022-08-19T01:21:37;22.10;99.90
27270;DHT22;14769;56.934;24.176;2022-08-19T01:22:45;22.20;99.90
27270;DHT22;14769;56.934;24.176;2022-08-19T01:23:48;22.20;99.90
27270;DHT22;14769;56.934;24.176;2022-08-19T01:24:51;22.10;99.90
27270;DHT22;14769;56.934;24.176;2022-08-19T01:25:55;22.10;99.90
27270;DHT22;14769;56.934;24.176;2022-08-19T01:26:59;22.10;99.90
27270;DHT22;14769;56.934;24.176;2022-08-19T01:28:02;22.10;99.90
27270;DHT22;14769;56.934;24.176;2022-08-19T01:29:12;22.10;99.90
27270;DHT22;14769;56.934;24.176;2022-08-19T01:30:31;22.10;99.90
27270;DHT22;14769;56.934;24.176;2022-08-19T01:32:43;22.00;99.90
27270;DHT22;14769;56.934;24.176;2022-08-19T01:33:45;22.00;99.90
27270;DHT22;14769;56.934;24.176;2022-08-19T01:34:48;22.00;99.90
27270;DHT22;14769;56.934;24.176;2022-08-19T01:35:50;22.00;99.90
27270;DHT22;14769;56.934;24.176;2022-08-19T01:36:53;22.00;99.90
27270;DHT22;14769;56.934;24.176;2022-08-19T01:37:57;22.00;99.90
27270;DHT22;14769;56.934;24.176;2022-08-19T01:39:02;22.00;99.90
27270;DHT22;14769;56.934;24.176;2022-08-19T01:40:05;22.00;99.90
27270;DHT22;14769;56.934;24.176;2022-08-19T01:41:11;22.00;99.90
27270;DHT22;14769;56.934;24.176;2022-08-19T01:42:13;22.00;99.90
27270;DHT22;14769;56.934;24.176;2022-08-19T01:43:15;22.00;99.90
27270;DHT22;14769;56.934;24.176;2022-08-19T01:44:17;22.00;99.90
27270;DHT22;14769;56.934;24.176;2022-08-19T01:45:24;22.00;99.90
27270;DHT22;14769;56.934;24.176;2022-08-19T01:46:26;22.00;99.90
27270;DHT22;14769;56.934;24.176;2022-08-19T01:47:28;22.00;99.90
27270;DHT22;14769;56.934;24.176;2022-08-19T01:48:36;22.00;99.90
27270;DHT22;14769;56.934;24.176;2022-08-19T01:49:38;22.00;99.90
27270;DHT22;14769;56.934;24.176;2022-08-19T01:50:40;22.00;99.90
27270;DHT22;14769;56.934;24.176;2022-08-19T01:51:42;22.00;99.90
27270;DHT22;14769;56.934;24.176;2022-08-19T01:52:44;22.00;99.90
27270;DHT22;14769;56.934;24.176;2022-08-19T01:53:50;21.90;99.90
27270;DHT22;14769;56.934;24.176;2022-08-19T01:54:53;21.90;99.90
27270;DHT22;14769;56.934;24.176;2022-08-19T01:55:55;21.90;99.90
27270;DHT22;14769;56.934;24.176;2022-08-19T01:57:04;22.00;99.90
27270;DHT22;14769;56.934;24.176;2022-08-19T01:58:51;21.90;99.90
27270;DHT22;14769;56.934;24.176;2022-08-19T01:59:33;21.90;99.90
27270;DHT22;14769;56.934;24.176;2022-08-19T02:00:37;21.90;99.90
27270;DHT22;14769;56.934;24.176;2022-08-19T02:01:40;21.90;99.90
27270;DHT22;14769;56.934;24.176;2022-08-19T02:02:42;21.90;99.90
27270;DHT22;14769;56.934;24.176;2022-08-19T02:03:45;21.90;99.90
27270;DHT22;14769;56.934;24.176;2022-08-19T02:04:47;21.90;99.90
27270;DHT22;14769;56.934;24.176;2022-08-19T02:05:58;21.90;99.90
27270;DHT22;14769;56.934;24.176;2022-08-19T02:07:02;21.90;99.90
27270;DHT22;14769;56.934;24.176;2022-08-19T02:08:04;21.90;99.90
27270;DHT22;14769;56.934;24.176;2022-08-19T02:09:07;21.90;99.90
27270;DHT22;14769;56.934;24.176;2022-08-19T02:10:14;21.80;99.90
27270;DHT22;14769;56.934;24.176;2022-08-19T02:11:25;21.90;99.90
27270;DHT22;14769;56.934;24.176;2022-08-19T02:12:28;21.80;99.90
27270;DHT22;14769;56.934;24.176;2022-08-19T02:13:30;21.80;99.90
27270;DHT22;14769;56.934;24.176;2022-08-19T02:14:34;21.80;99.90
27270;DHT22;14769;56.934;24.176;2022-08-19T02:15:36;21.80;99.90
27270;DHT22;14769;56.934;24.176;2022-08-19T02:16:38;21.80;99.90
27270;DHT22;14769;56.934;24.176;2022-08-19T02:17:42;21.80;99.90
27270;DHT22;14769;56.934;24.176;2022-08-19T02:18:44;21.80;99.90
27270;DHT22;14769;56.934;24.176;2022-08-19T02:19:46;21.80;99.90
27270;DHT22;14769;56.934;24.176;2022-08-19T02:20:50;21.80;99.90
27270;DHT22;14769;56.934;24.176;2022-08-19T02:21:52;21.80;99.90
27270;DHT22;14769;56.934;24.176;2022-08-19T02:22:54;21.80;99.90
27270;DHT22;14769;56.934;24.176;2022-08-19T02:23:56;21.80;99.90
27270;DHT22;14769;56.934;24.176;2022-08-19T02:24:59;21.80;99.90
27270;DHT22;14769;56.934;24.176;2022-08-19T02:26:01;21.80;99.90
27270;DHT22;14769;56.934;24.176;2022-08-19T02:27:03;21.80;99.90
27270;DHT22;14769;56.934;24.176;2022-08-19T02:28:06;21.80;99.90
27270;DHT22;14769;56.934;24.176;2022-08-19T02:29:08;21.70;99.90
27270;DHT22;14769;56.934;24.176;2022-08-19T02:30:17;21.70;99.90
27270;DHT22;14769;56.934;24.176;2022-08-19T02:31:22;21.70;99.90
27270;DHT22;14769;56.934;24.176;2022-08-19T02:32:26;21.70;99.90
27270;DHT22;14769;56.934;24.176;2022-08-19T02:33:29;21.70;99.90
27270;DHT22;14769;56.934;24.176;2022-08-19T02:34:31;21.70;99.90
27270;DHT22;14769;56.934;24.176;2022-08-19T02:35:33;21.60;99.90
27270;DHT22;14769;56.934;24.176;2022-08-19T02:36:35;21.60;99.90
27270;DHT22;14769;56.934;24.176;2022-08-19T02:37:43;21.70;99.90
27270;DHT22;14769;56.934;24.176;2022-08-19T02:39:04;21.70;99.90
27270;DHT22;14769;56.934;24.176;2022-08-19T02:40:06;21.60;99.90
27270;DHT22;14769;56.934;24.176;2022-08-19T02:41:19;21.60;99.90
27270;DHT22;14769;56.934;24.176;2022-08-19T02:42:27;21.60;99.90
27270;DHT22;14769;56.934;24.176;2022-08-19T02:43:30;21.60;99.90
27270;DHT22;14769;56.934;24.176;2022-08-19T02:44:35;21.50;99.90
27270;DHT22;14769;56.934;24.176;2022-08-19T02:45:38;21.60;99.90
27270;DHT22;14769;56.934;24.176;2022-08-19T02:46:42;21.60;99.90
27270;DHT22;14769;56.934;24.176;2022-08-19T02:47:46;21.50;99.90
27270;DHT22;14769;56.934;24.176;2022-08-19T02:48:49;21.60;99.90
27270;DHT22;14769;56.934;24.176;2022-08-19T02:49:51;21.60;99.90
27270;DHT22;14769;56.934;24.176;2022-08-19T02:50:53;21.50;99.90
27270;DHT22;14769;56.934;24.176;2022-08-19T02:51:58;21.60;99.90
27270;DHT22;14769;56.934;24.176;2022-08-19T02:53:00;21.60;99.90
27270;DHT22;14769;56.934;24.176;2022-08-19T02:54:03;21.50;99.90
27270;DHT22;14769;56.934;24.176;2022-08-19T02:55:06;21.60;99.90
27270;DHT22;14769;56.934;24.176;2022-08-19T02:56:08;21.50;99.90
27270;DHT22;14769;56.934;24.176;2022-08-19T02:57:10;21.50;99.90
27270;DHT22;14769;56.934;24.176;2022-08-19T02:58:13;21.50;99.90
27270;DHT22;14769;56.934;24.176;2022-08-19T02:59:16;21.50;99.90
27270;DHT22;14769;56.934;24.176;2022-08-19T03:00:20;21.50;99.90
27270;DHT22;14769;56.934;24.176;2022-08-19T03:01:32;21.50;99.90
27270;DHT22;14769;56.934;24.176;2022-08-19T03:02:34;21.50;99.90
27270;DHT22;14769;56.934;24.176;2022-08-19T03:03:37;21.50;99.90
27270;DHT22;14769;56.934;24.176;2022-08-19T03:04:39;21.50;99.90
27270;DHT22;14769;56.934;24.176;2022-08-19T03:05:41;21.40;99.90
27270;DHT22;14769;56.934;24.176;2022-08-19T03:06:56;21.50;99.90
27270;DHT22;14769;56.934;24.176;2022-08-19T03:08:12;21.40;99.90
27270;DHT22;14769;56.934;24.176;2022-08-19T03:09:15;21.50;99.90
27270;DHT22;14769;56.934;24.176;2022-08-19T03:10:18;21.50;99.90
27270;DHT22;14769;56.934;24.176;2022-08-19T03:11:22;21.40;99.90
27270;DHT22;14769;56.934;24.176;2022-08-19T03:12:25;21.40;99.90
27270;DHT22;14769;56.934;24.176;2022-08-19T03:13:27;21.50;99.90
27270;DHT22;14769;56.934;24.176;2022-08-19T03:14:33;21.40;99.90
27270;DHT22;14769;56.934;24.176;2022-08-19T03:15:39;21.50;99.90
27270;DHT22;14769;56.934;24.176;2022-08-19T03:16:49;21.50;99.90
27270;DHT22;14769;56.934;24.176;2022-08-19T03:17:51;21.50;99.90
27270;DHT22;14769;56.934;24.176;2022-08-19T03:18:56;21.50;99.90
27270;DHT22;14769;56.934;24.176;2022-08-19T03:19:58;21.50;99.90
27270;DHT22;14769;56.934;24.176;2022-08-19T03:21:00;21.50;99.90
27270;DHT22;14769;56.934;24.176;2022-08-19T03:22:02;21.50;99.90
27270;DHT22;14769;56.934;24.176;2022-08-19T03:23:05;21.50;99.90
27270;DHT22;14769;56.934;24.176;2022-08-19T03:24:08;21.50;99.90
27270;DHT22;14769;56.934;24.176;2022-08-19T03:25:10;21.50;99.90
27270;DHT22;14769;56.934;24.176;2022-08-19T03:26:13;21.50;99.90
27270;DHT22;14769;56.934;24.176;2022-08-19T03:27:17;21.50;99.90
27270;DHT22;14769;56.934;24.176;2022-08-19T03:28:20;21.50;99.90
27270;DHT22;14769;56.934;24.176;2022-08-19T03:29:23;21.50;99.90
27270;DHT22;14769;56.934;24.176;2022-08-19T03:30:31;21.50;99.90
27270;DHT22;14769;56.934;24.176;2022-08-19T03:31:34;21.50;99.90
27270;DHT22;14769;56.934;24.176;2022-08-19T03:32:51;21.50;99.90
27270;DHT22;14769;56.934;24.176;2022-08-19T03:33:57;21.50;99.90
27270;DHT22;14769;56.934;24.176;2022-08-19T03:34:59;21.50;99.90
27270;DHT22;14769;56.934;24.176;2022-08-19T03:36:14;21.50;99.90
27270;DHT22;14769;56.934;24.176;2022-08-19T03:37:16;21.50;99.90
27270;DHT22;14769;56.934;24.176;2022-08-19T03:38:18;21.50;99.90
27270;DHT22;14769;56.934;24.176;2022-08-19T03:39:20;21.50;99.90
27270;DHT22;14769;56.934;24.176;2022-08-19T03:40:23;21.50;99.90
27270;DHT22;14769;56.934;24.176;2022-08-19T03:41:28;21.50;99.90
27270;DHT22;14769;56.934;24.176;2022-08-19T03:42:43;21.50;99.90
27270;DHT22;14769;56.934;24.176;2022-08-19T03:43:57;21.50;99.90
27270;DHT22;14769;56.934;24.176;2022-08-19T03:45:00;21.50;99.90
27270;DHT22;14769;56.934;24.176;2022-08-19T03:46:07;21.50;99.90
27270;DHT22;14769;56.934;24.176;2022-08-19T03:47:09;21.50;99.90
27270;DHT22;14769;56.934;24.176;2022-08-19T03:48:16;21.50;99.90
27270;DHT22;14769;56.934;24.176;2022-08-19T03:49:19;21.50;99.90
27270;DHT22;14769;56.934;24.176;2022-08-19T03:50:27;21.50;99.90
27270;DHT22;14769;56.934;24.176;2022-08-19T03:51:33;21.50;99.90
27270;DHT22;14769;56.934;24.176;2022-08-19T03:52:36;21.50;99.90
27270;DHT22;14769;56.934;24.176;2022-08-19T03:53:38;21.50;99.90
27270;DHT22;14769;56.934;24.176;2022-08-19T03:54:41;21.50;99.90
27270;DHT22;14769;56.934;24.176;2022-08-19T03:55:43;21.60;99.90
27270;DHT22;14769;56.934;24.176;2022-08-19T03:56:48;21.60;99.90
27270;DHT22;14769;56.934;24.176;2022-08-19T03:57:50;21.60;99.90
27270;DHT22;14769;56.934;24.176;2022-08-19T03:58:59;21.60;99.90
27270;DHT22;14769;56.934;24.176;2022-08-19T04:00:04;21.60;99.90
27270;DHT22;14769;56.934;24.176;2022-08-19T04:01:17;21.60;99.90
27270;DHT22;14769;56.934;24.176;2022-08-19T04:02:20;21.60;99.90
27270;DHT22;14769;56.934;24.176;2022-08-19T04:03:24;21.60;99.90
27270;DHT22;14769;56.934;24.176;2022-08-19T04:04:29;21.60;99.90
27270;DHT22;14769;56.934;24.176;2022-08-19T04:05:32;21.60;99.90
27270;DHT22;14769;56.934;24.176;2022-08-19T04:06:36;21.60;99.90
27270;DHT22;14769;56.934;24.176;2022-08-19T04:07:40;21.70;99.90
27270;DHT22;14769;56.934;24.176;2022-08-19T04:08:44;21.70;99.90
27270;DHT22;14769;56.934;24.176;2022-08-19T04:09:46;21.70;99.90
27270;DHT22;14769;56.934;24.176;2022-08-19T04:10:49;21.70;99.90
27270;DHT22;14769;56.934;24.176;2022-08-19T04:11:53;21.70;99.90
27270;DHT22;14769;56.934;24.176;2022-08-19T04:12:56;21.70;99.90
27270;DHT22;14769;56.934;24.176;2022-08-19T04:13:58;21.70;99.90
27270;DHT22;14769;56.934;24.176;2022-08-19T04:15:05;21.80;99.90
27270;DHT22;14769;56.934;24.176;2022-08-19T04:16:07;21.70;99.90
27270;DHT22;14769;56.934;24.176;2022-08-19T04:17:11;21.80;99.90
27270;DHT22;14769;56.934;24.176;2022-08-19T04:18:15;21.80;99.90
27270;DHT22;14769;56.934;24.176;2022-08-19T04:19:19;21.80;99.90
27270;DHT22;14769;56.934;24.176;2022-08-19T04:20:22;21.90;99.90
27270;DHT22;14769;56.934;24.176;2022-08-19T04:21:25;21.80;99.90
27270;DHT22;14769;56.934;24.176;2022-08-19T04:22:28;21.90;99.90
27270;DHT22;14769;56.934;24.176;2022-08-19T04:23:31;21.90;99.90
27270;DHT22;14769;56.934;24.176;2022-08-19T04:24:34;21.90;99.90
27270;DHT22;14769;56.934;24.176;2022-08-19T04:25:41;21.90;99.90
27270;DHT22;14769;56.934;24.176;2022-08-19T04:26:44;22.00;99.90
27270;DHT22;14769;56.934;24.176;2022-08-19T04:27:46;22.00;99.90
27270;DHT22;14769;56.934;24.176;2022-08-19T04:28:50;22.00;99.90
27270;DHT22;14769;56.934;24.176;2022-08-19T04:29:53;22.00;99.90
27270;DHT22;14769;56.934;24.176;2022-08-19T04:30:56;22.10;99.90
27270;DHT22;14769;56.934;24.176;2022-08-19T04:32:00;22.00;99.90
27270;DHT22;14769;56.934;24.176;2022-08-19T04:33:11;22.10;99.90
27270;DHT22;14769;56.934;24.176;2022-08-19T04:34:16;22.10;99.90
27270;DHT22;14769;56.934;24.176;2022-08-19T04:35:19;22.10;99.90
27270;DHT22;14769;56.934;24.176;2022-08-19T04:36:28;22.10;99.90
27270;DHT22;14769;56.934;24.176;2022-08-19T04:37:31;22.10;99.90
27270;DHT22;14769;56.934;24.176;2022-08-19T04:38:36;22.20;99.90
27270;DHT22;14769;56.934;24.176;2022-08-19T04:39:38;22.20;99.90
27270;DHT22;14769;56.934;24.176;2022-08-19T04:41:03;22.20;99.90
27270;DHT22;14769;56.934;24.176;2022-08-19T04:42:24;22.20;99.90
27270;DHT22;14769;56.934;24.176;2022-08-19T04:43:41;22.30;99.90
27270;DHT22;14769;56.934;24.176;2022-08-19T04:44:43;22.30;99.90
27270;DHT22;14769;56.934;24.176;2022-08-19T04:45:47;22.30;99.90
27270;DHT22;14769;56.934;24.176;2022-08-19T04:46:53;22.30;99.90
27270;DHT22;14769;56.934;24.176;2022-08-19T04:47:55;22.40;99.90
27270;DHT22;14769;56.934;24.176;2022-08-19T04:49:21;22.40;99.90
27270;DHT22;14769;56.934;24.176;2022-08-19T04:50:25;22.50;99.90
27270;DHT22;14769;56.934;24.176;2022-08-19T04:51:28;22.40;99.90
27270;DHT22;14769;56.934;24.176;2022-08-19T04:52:32;22.50;99.90
27270;DHT22;14769;56.934;24.176;2022-08-19T04:53:36;22.50;99.90
27270;DHT22;14769;56.934;24.176;2022-08-19T04:54:38;22.60;99.90
27270;DHT22;14769;56.934;24.176;2022-08-19T04:55:41;22.60;99.90
27270;DHT22;14769;56.934;24.176;2022-08-19T04:56:44;22.60;99.90
27270;DHT22;14769;56.934;24.176;2022-08-19T04:57:46;22.70;99.90
27270;DHT22;14769;56.934;24.176;2022-08-19T04:58:48;22.70;99.90
27270;DHT22;14769;56.934;24.176;2022-08-19T04:59:56;22.70;99.90
27270;DHT22;14769;56.934;24.176;2022-08-19T05:00:59;22.80;99.90
27270;DHT22;14769;56.934;24.176;2022-08-19T05:02:02;22.80;99.90
27270;DHT22;14769;56.934;24.176;2022-08-19T05:03:05;22.80;99.90
27270;DHT22;14769;56.934;24.176;2022-08-19T05:04:08;22.90;99.90
27270;DHT22;14769;56.934;24.176;2022-08-19T05:05:11;22.90;99.90
27270;DHT22;14769;56.934;24.176;2022-08-19T05:06:15;22.90;99.90
27270;DHT22;14769;56.934;24.176;2022-08-19T05:07:17;22.90;99.90
27270;DHT22;14769;56.934;24.176;2022-08-19T05:08:21;22.90;99.90
27270;DHT22;14769;56.934;24.176;2022-08-19T05:09:32;23.00;99.90
27270;DHT22;14769;56.934;24.176;2022-08-19T05:10:54;23.00;99.90
27270;DHT22;14769;56.934;24.176;2022-08-19T05:11:56;23.00;99.90
27270;DHT22;14769;56.934;24.176;2022-08-19T05:12:57;23.00;99.90
27270;DHT22;14769;56.934;24.176;2022-08-19T05:14:01;23.00;99.90
27270;DHT22;14769;56.934;24.176;2022-08-19T05:15:04;23.10;99.90
27270;DHT22;14769;56.934;24.176;2022-08-19T05:16:07;23.10;99.90
27270;DHT22;14769;56.934;24.176;2022-08-19T05:17:09;23.10;99.90
27270;DHT22;14769;56.934;24.176;2022-08-19T05:18:28;23.20;99.90
27270;DHT22;14769;56.934;24.176;2022-08-19T05:19:49;23.10;99.90
27270;DHT22;14769;56.934;24.176;2022-08-19T05:21:12;23.20;99.90
27270;DHT22;14769;56.934;24.176;2022-08-19T05:22:33;23.20;99.90
27270;DHT22;14769;56.934;24.176;2022-08-19T05:23:39;23.20;99.90
27270;DHT22;14769;56.934;24.176;2022-08-19T05:24:41;23.20;99.90
27270;DHT22;14769;56.934;24.176;2022-08-19T05:26:03;23.30;99.90
27270;DHT22;14769;56.934;24.176;2022-08-19T05:27:05;23.30;99.90
27270;DHT22;14769;56.934;24.176;2022-08-19T05:28:08;23.40;99.90
27270;DHT22;14769;56.934;24.176;2022-08-19T05:29:10;23.40;99.90
27270;DHT22;14769;56.934;24.176;2022-08-19T05:30:12;23.40;99.90
27270;DHT22;14769;56.934;24.176;2022-08-19T05:31:14;23.50;99.90
27270;DHT22;14769;56.934;24.176;2022-08-19T05:32:16;23.60;99.90
27270;DHT22;14769;56.934;24.176;2022-08-19T05:33:18;23.60;99.90
27270;DHT22;14769;56.934;24.176;2022-08-19T05:34:22;23.60;99.90
27270;DHT22;14769;56.934;24.176;2022-08-19T05:35:26;23.70;99.90
27270;DHT22;14769;56.934;24.176;2022-08-19T05:36:45;23.70;99.90
27270;DHT22;14769;56.934;24.176;2022-08-19T05:37:47;23.70;99.90
27270;DHT22;14769;56.934;24.176;2022-08-19T05:38:55;23.70;99.90
27270;DHT22;14769;56.934;24.176;2022-08-19T05:39:57;23.80;99.90
27270;DHT22;14769;56.934;24.176;2022-08-19T05:40:59;23.80;99.90
27270;DHT22;14769;56.934;24.176;2022-08-19T05:42:04;23.80;99.90
27270;DHT22;14769;56.934;24.176;2022-08-19T05:43:08;23.90;99.90
27270;DHT22;14769;56.934;24.176;2022-08-19T05:44:10;23.90;99.90
27270;DHT22;14769;56.934;24.176;2022-08-19T05:45:12;23.90;99.90
27270;DHT22;14769;56.934;24.176;2022-08-19T05:46:18;23.90;99.90
27270;DHT22;14769;56.934;24.176;2022-08-19T05:47:28;24.00;99.90
27270;DHT22;14769;56.934;24.176;2022-08-19T05:48:30;24.10;99.90
27270;DHT22;14769;56.934;24.176;2022-08-19T05:49:35;24.10;99.90
27270;DHT22;14769;56.934;24.176;2022-08-19T05:50:40;24.10;99.90
27270;DHT22;14769;56.934;24.176;2022-08-19T05:51:42;24.20;99.90
27270;DHT22;14769;56.934;24.176;2022-08-19T05:52:44;24.20;99.90
27270;DHT22;14769;56.934;24.176;2022-08-19T05:53:51;24.30;99.90
27270;DHT22;14769;56.934;24.176;2022-08-19T05:54:53;24.30;99.90
27270;DHT22;14769;56.934;24.176;2022-08-19T05:55:57;24.40;99.90
27270;DHT22;14769;56.934;24.176;2022-08-19T05:57:00;24.40;99.90
27270;DHT22;14769;56.934;24.176;2022-08-19T05:58:02;24.40;99.90
27270;DHT22;14769;56.934;24.176;2022-08-19T05:59:05;24.40;99.90
27270;DHT22;14769;56.934;24.176;2022-08-19T06:00:11;24.50;99.90
27270;DHT22;14769;56.934;24.176;2022-08-19T06:01:17;24.50;99.90
27270;DHT22;14769;56.934;24.176;2022-08-19T06:02:19;24.60;99.90
27270;DHT22;14769;56.934;24.176;2022-08-19T06:03:21;24.60;99.90
27270;DHT22;14769;56.934;24.176;2022-08-19T06:04:23;24.60;99.90
27270;DHT22;14769;56.934;24.176;2022-08-19T06:05:25;24.70;99.90
27270;DHT22;14769;56.934;24.176;2022-08-19T06:06:27;24.70;99.90
27270;DHT22;14769;56.934;24.176;2022-08-19T06:07:30;24.70;99.90
27270;DHT22;14769;56.934;24.176;2022-08-19T06:08:32;24.70;99.90
27270;DHT22;14769;56.934;24.176;2022-08-19T06:09:35;24.80;99.90
27270;DHT22;14769;56.934;24.176;2022-08-19T06:10:38;24.80;99.80
27270;DHT22;14769;56.934;24.176;2022-08-19T06:11:43;24.80;99.60
27270;DHT22;14769;56.934;24.176;2022-08-19T06:12:47;24.90;99.40
27270;DHT22;14769;56.934;24.176;2022-08-19T06:13:51;24.90;99.20
27270;DHT22;14769;56.934;24.176;2022-08-19T06:15:04;24.90;99.20
27270;DHT22;14769;56.934;24.176;2022-08-19T06:16:09;25.00;98.80
27270;DHT22;14769;56.934;24.176;2022-08-19T06:17:11;25.00;98.30
27270;DHT22;14769;56.934;24.176;2022-08-19T06:18:15;25.10;98.20
27270;DHT22;14769;56.934;24.176;2022-08-19T06:19:20;25.10;98.00
27270;DHT22;14769;56.934;24.176;2022-08-19T06:20:22;25.10;98.00
27270;DHT22;14769;56.934;24.176;2022-08-19T06:21:46;25.20;97.90
27270;DHT22;14769;56.934;24.176;2022-08-19T06:22:49;25.20;97.80
27270;DHT22;14769;56.934;24.176;2022-08-19T06:23:54;25.20;97.60
27270;DHT22;14769;56.934;24.176;2022-08-19T06:24:56;25.30;97.20
27270;DHT22;14769;56.934;24.176;2022-08-19T06:25:58;25.40;97.00
27270;DHT22;14769;56.934;24.176;2022-08-19T06:27:02;25.40;96.70
27270;DHT22;14769;56.934;24.176;2022-08-19T06:28:04;25.40;96.20
27270;DHT22;14769;56.934;24.176;2022-08-19T06:29:17;25.40;96.00
27270;DHT22;14769;56.934;24.176;2022-08-19T06:30:24;25.50;96.10
27270;DHT22;14769;56.934;24.176;2022-08-19T06:31:29;25.60;95.80
27270;DHT22;14769;56.934;24.176;2022-08-19T06:32:33;25.60;95.60
27270;DHT22;14769;56.934;24.176;2022-08-19T06:33:35;25.60;95.60
27270;DHT22;14769;56.934;24.176;2022-08-19T06:34:37;25.60;95.50
27270;DHT22;14769;56.934;24.176;2022-08-19T06:35:40;25.70;95.20
27270;DHT22;14769;56.934;24.176;2022-08-19T06:36:45;25.70;94.90
27270;DHT22;14769;56.934;24.176;2022-08-19T06:37:47;25.80;94.90
27270;DHT22;14769;56.934;24.176;2022-08-19T06:38:49;25.80;94.80
27270;DHT22;14769;56.934;24.176;2022-08-19T06:39:51;25.80;94.70
27270;DHT22;14769;56.934;24.176;2022-08-19T06:41:03;25.80;94.70
27270;DHT22;14769;56.934;24.176;2022-08-19T06:42:09;25.90;94.30
27270;DHT22;14769;56.934;24.176;2022-08-19T06:43:13;25.90;94.20
27270;DHT22;14769;56.934;24.176;2022-08-19T06:44:20;25.90;94.00
27270;DHT22;14769;56.934;24.176;2022-08-19T06:45:25;25.90;93.90